sensor_id;sensor_type;location;lat;lon;timestamp;pressure;altitude;pressure_sealevel;temperature;humidity
11676;BME280;5894;42.768;23.404;2023-02-16T00:01:00;96963.03;;;-0.24;100.00
11676;BME280;5894;42.768;23.404;2023-02-16T00:03:27;96948.25;;;-0.30;100.00
11676;BME280;5894;42.768;23.404;2023-02-16T00:05:55;96958.66;;;-0.17;100.00
11676;BME280;5894;42.768;23.404;2023-02-16T00:08:22;96955.28;;;-0.11;100.00
11676;BME280;5894;42.768;23.404;2023-02-16T00:10:49;96940.88;;;-0.20;100.00
11676;BME280;5894;42.768;23.404;2023-02-16T00:13:33;96947.47;;;-0.31;100.00
11676;BME280;5894;42.768;23.404;2023-02-16T00:16:13;96946.69;;;-0.31;100.00
11676;BME280;5894;42.768;23.404;2023-02-16T00:18:41;96931.91;;;-0.38;100.00
11676;BME280;5894;42.768;23.404;2023-02-16T00:21:09;96917.38;;;-0.39;100.00
11676;BME280;5894;42.768;23.404;2023-02-16T00:23:36;96944.09;;;-0.25;100.00
11676;BME280;5894;42.768;23.404;2023-02-16T00:26:03;96926.75;;;-0.38;100.00
11676;BME280;5894;42.768;23.404;2023-02-16T00:28:31;96947.91;;;-0.21;100.00
11676;BME280;5894;42.768;23.404;2023-02-16T00:30:58;96946.31;;;-0.22;100.00
11676;BME280;5894;42.768;23.404;2023-02-16T00:33:25;96945.31;;;-0.21;100.00
11676;BME280;5894;42.768;23.404;2023-02-16T00:35:52;96948.50;;;-0.12;100.00
11676;BME280;5894;42.768;23.404;2023-02-16T00:38:20;96948.06;;;-0.09;100.00
11676;BME280;5894;42.768;23.404;2023-02-16T00:40:47;96943.09;;;-0.04;100.00
11676;BME280;5894;42.768;23.404;2023-02-16T00:43:23;96951.09;;;-0.12;100.00
11676;BME280;5894;42.768;23.404;2023-02-16T00:45:50;96940.50;;;-0.17;100.00
11676;BME280;5894;42.768;23.404;2023-02-16T00:48:18;96946.09;;;-0.14;100.00
11676;BME280;5894;42.768;23.404;2023-02-16T00:50:45;96938.13;;;-0.25;100.00
11676;BME280;5894;42.768;23.404;2023-02-16T00:53:12;96945.47;;;-0.29;100.00
11676;BME280;5894;42.768;23.404;2023-02-16T00:55:41;96948.50;;;-0.32;100.00
11676;BME280;5894;42.768;23.404;2023-02-16T00:58:14;96884.63;;;-0.73;100.00
11676;BME280;5894;42.768;23.404;2023-02-16T01:00:46;96939.91;;;-0.39;100.00
11676;BME280;5894;42.768;23.404;2023-02-16T01:03:16;96944.09;;;-0.38;100.00
11676;BME280;5894;42.768;23.404;2023-02-16T01:05:44;96944.69;;;-0.36;100.00
11676;BME280;5894;42.768;23.404;2023-02-16T01:08:12;96947.06;;;-0.41;100.00
11676;BME280;5894;42.768;23.404;2023-02-16T01:10:59;96906.19;;;-0.59;100.00
11676;BME280;5894;42.768;23.404;2023-02-16T01:13:42;96911.75;;;-0.62;100.00
11676;BME280;5894;42.768;23.404;2023-02-16T01:16:12;96845.97;;;-1.07;100.00
11676;BME280;5894;42.768;23.404;2023-02-16T01:18:40;96931.72;;;-0.43;100.00
11676;BME280;5894;42.768;23.404;2023-02-16T01:21:07;96905.38;;;-0.66;100.00
11676;BME280;5894;42.768;23.404;2023-02-16T01:23:35;96931.72;;;-0.43;100.00
11676;BME280;5894;42.768;23.404;2023-02-16T01:26:04;96936.50;;;-0.46;100.00
11676;BME280;5894;42.768;23.404;2023-02-16T01:28:33;96906.19;;;-0.39;100.00
11676;BME280;5894;42.768;23.404;2023-02-16T01:31:00;96928.31;;;-0.30;100.00
11676;BME280;5894;42.768;23.404;2023-02-16T01:33:27;96908.78;;;-0.59;100.00
11676;BME280;5894;42.768;23.404;2023-02-16T01:35:54;96917.38;;;-0.45;100.00
11676;BME280;5894;42.768;23.404;2023-02-16T01:38:24;96914.78;;;-0.45;100.00
11676;BME280;5894;42.768;23.404;2023-02-16T01:40:56;96914.56;;;-0.63;100.00
11676;BME280;5894;42.768;23.404;2023-02-16T01:43:31;96906.56;;;-0.68;100.00
11676;BME280;5894;42.768;23.404;2023-02-16T01:46:03;96886.63;;;-0.88;100.00
11676;BME280;5894;42.768;23.404;2023-02-16T01:48:31;96889.06;;;-0.73;100.00
11676;BME280;5894;42.768;23.404;2023-02-16T01:51:02;96904.38;;;-0.71;100.00
11676;BME280;5894;42.768;23.404;2023-02-16T01:53:36;96913.94;;;-0.72;100.00
11676;BME280;5894;42.768;23.404;2023-02-16T01:56:09;96898.00;;;-0.69;100.00
11676;BME280;5894;42.768;23.404;2023-02-16T01:58:45;96900.41;;;-0.74;100.00
11676;BME280;5894;42.768;23.404;2023-02-16T02:01:43;96896.41;;;-0.83;100.00
11676;BME280;5894;42.768;23.404;2023-02-16T02:04:19;96895.78;;;-0.92;100.00
11676;BME280;5894;42.768;23.404;2023-02-16T02:07:05;96845.94;;;-1.20;100.00
11676;BME280;5894;42.768;23.404;2023-02-16T02:09:37;96887.63;;;-0.95;100.00
11676;BME280;5894;42.768;23.404;2023-02-16T02:12:12;96840.94;;;-1.28;100.00
11676;BME280;5894;42.768;23.404;2023-02-16T02:14:44;96890.59;;;-1.05;100.00
11676;BME280;5894;42.768;23.404;2023-02-16T02:17:16;96886.59;;;-1.01;100.00
11676;BME280;5894;42.768;23.404;2023-02-16T02:19:52;96894.34;;;-1.01;100.00
11676;BME280;5894;42.768;23.404;2023-02-16T02:32:05;96895.00;;;-0.79;100.00
11676;BME280;5894;42.768;23.404;2023-02-16T02:34:47;96891.84;;;-0.68;100.00
11676;BME280;5894;42.768;23.404;2023-02-16T02:37:24;96896.03;;;-0.67;100.00
11676;BME280;5894;42.768;23.404;2023-02-16T02:40:02;96892.22;;;-0.78;100.00
11676;BME280;5894;42.768;23.404;2023-02-16T02:42:33;96893.97;;;-0.91;100.00
11676;BME280;5894;42.768;23.404;2023-02-16T02:45:08;96895.81;;;-0.79;100.00
11676;BME280;5894;42.768;23.404;2023-02-16T02:47:38;96890.59;;;-0.92;100.00
11676;BME280;5894;42.768;23.404;2023-02-16T02:50:30;96863.06;;;-1.19;100.00
11676;BME280;5894;42.768;23.404;2023-02-16T02:53:01;96889.22;;;-0.94;100.00
11676;BME280;5894;42.768;23.404;2023-02-16T02:55:32;96898.34;;;-0.92;100.00
11676;BME280;5894;42.768;23.404;2023-02-16T02:58:21;96884.38;;;-1.17;100.00
11676;BME280;5894;42.768;23.404;2023-02-16T03:01:11;96851.59;;;-1.51;100.00
11676;BME280;5894;42.768;23.404;2023-02-16T03:03:43;96903.47;;;-1.25;100.00
11676;BME280;5894;42.768;23.404;2023-02-16T03:06:14;96892.63;;;-1.48;100.00
11676;BME280;5894;42.768;23.404;2023-02-16T03:08:45;96855.28;;;-1.80;100.00
11676;BME280;5894;42.768;23.404;2023-02-16T03:11:16;96910.53;;;-1.46;100.00
11676;BME280;5894;42.768;23.404;2023-02-16T03:14:04;96889.97;;;-1.61;100.00
11676;BME280;5894;42.768;23.404;2023-02-16T03:16:37;96898.97;;;-1.51;100.00
11676;BME280;5894;42.768;23.404;2023-02-16T03:19:08;96899.97;;;-1.52;100.00
11676;BME280;5894;42.768;23.404;2023-02-16T03:21:54;96897.38;;;-1.52;100.00
11676;BME280;5894;42.768;23.404;2023-02-16T03:24:40;96898.34;;;-1.59;100.00
11676;BME280;5894;42.768;23.404;2023-02-16T03:27:27;96911.91;;;-1.57;100.00
11676;BME280;5894;42.768;23.404;2023-02-16T03:30:14;96895.06;;;-1.74;100.00
11676;BME280;5894;42.768;23.404;2023-02-16T03:32:44;96898.47;;;-1.74;100.00
11676;BME280;5894;42.768;23.404;2023-02-16T03:35:12;96898.09;;;-1.71;100.00
11676;BME280;5894;42.768;23.404;2023-02-16T03:37:39;96901.09;;;-1.67;100.00
11676;BME280;5894;42.768;23.404;2023-02-16T03:40:08;96900.44;;;-1.76;100.00
11676;BME280;5894;42.768;23.404;2023-02-16T03:42:55;96902.56;;;-1.86;100.00
11676;BME280;5894;42.768;23.404;2023-02-16T03:45:23;96905.72;;;-1.91;100.00
11676;BME280;5894;42.768;23.404;2023-02-16T03:47:52;96890.78;;;-1.95;100.00
11676;BME280;5894;42.768;23.404;2023-02-16T03:50:19;96848.28;;;-2.20;100.00
11676;BME280;5894;42.768;23.404;2023-02-16T03:52:46;96900.38;;;-1.89;100.00
11676;BME280;5894;42.768;23.404;2023-02-16T03:55:13;96852.94;;;-2.09;100.00
11676;BME280;5894;42.768;23.404;2023-02-16T03:57:40;96897.22;;;-1.85;100.00
11676;BME280;5894;42.768;23.404;2023-02-16T04:00:08;96857.94;;;-2.01;100.00
11676;BME280;5894;42.768;23.404;2023-02-16T04:02:42;96878.13;;;-1.83;100.00
11676;BME280;5894;42.768;23.404;2023-02-16T04:05:10;96892.22;;;-1.86;100.00
11676;BME280;5894;42.768;23.404;2023-02-16T04:07:37;96893.59;;;-1.90;100.00
11676;BME280;5894;42.768;23.404;2023-02-16T04:10:04;96891.22;;;-1.85;100.00
11676;BME280;5894;42.768;23.404;2023-02-16T04:12:31;96887.03;;;-1.86;100.00
11676;BME280;5894;42.768;23.404;2023-02-16T04:15:05;96876.91;;;-1.88;100.00
11676;BME280;5894;42.768;23.404;2023-02-16T04:17:32;96885.25;;;-1.86;100.00
11676;BME280;5894;42.768;23.404;2023-02-16T04:19:59;96882.91;;;-1.80;100.00
11676;BME280;5894;42.768;23.404;2023-02-16T04:22:27;96879.50;;;-1.88;100.00
11676;BME280;5894;42.768;23.404;2023-02-16T04:24:54;96885.06;;;-1.84;100.00
11676;BME280;5894;42.768;23.404;2023-02-16T04:27:21;96848.97;;;-2.05;100.00
11676;BME280;5894;42.768;23.404;2023-02-16T04:29:47;96854.44;;;-1.87;100.00
11676;BME280;5894;42.768;23.404;2023-02-16T04:32:15;96837.28;;;-1.95;100.00
11676;BME280;5894;42.768;23.404;2023-02-16T04:34:42;96869.16;;;-1.88;100.00
11676;BME280;5894;42.768;23.404;2023-02-16T04:37:09;96883.19;;;-1.69;100.00
11676;BME280;5894;42.768;23.404;2023-02-16T04:39:37;96870.63;;;-1.72;100.00
11676;BME280;5894;42.768;23.404;2023-02-16T04:42:04;96875.00;;;-1.72;100.00
11676;BME280;5894;42.768;23.404;2023-02-16T04:44:31;96888.19;;;-1.61;100.00
11676;BME280;5894;42.768;23.404;2023-02-16T04:46:58;96873.22;;;-1.72;100.00
11676;BME280;5894;42.768;23.404;2023-02-16T04:49:24;96868.00;;;-1.78;100.00
11676;BME280;5894;42.768;23.404;2023-02-16T04:51:51;96900.69;;;-1.64;100.00
11676;BME280;5894;42.768;23.404;2023-02-16T04:54:18;96889.53;;;-1.71;100.00
11676;BME280;5894;42.768;23.404;2023-02-16T04:56:46;96885.75;;;-1.69;100.00
11676;BME280;5894;42.768;23.404;2023-02-16T04:59:14;96870.78;;;-1.80;100.00
11676;BME280;5894;42.768;23.404;2023-02-16T05:01:41;96898.25;;;-1.79;100.00
11676;BME280;5894;42.768;23.404;2023-02-16T05:04:08;96883.38;;;-2.05;100.00
11676;BME280;5894;42.768;23.404;2023-02-16T05:06:35;96895.34;;;-1.97;100.00
11676;BME280;5894;42.768;23.404;2023-02-16T05:09:02;96872.41;;;-2.07;100.00
11676;BME280;5894;42.768;23.404;2023-02-16T05:11:29;96897.16;;;-1.98;100.00
11676;BME280;5894;42.768;23.404;2023-02-16T05:14:19;96907.69;;;-1.99;100.00
11676;BME280;5894;42.768;23.404;2023-02-16T05:17:04;96902.16;;;-2.17;100.00
11676;BME280;5894;42.768;23.404;2023-02-16T05:19:30;96920.13;;;-2.09;100.00
11676;BME280;5894;42.768;23.404;2023-02-16T05:21:58;96897.22;;;-2.19;100.00
11676;BME280;5894;42.768;23.404;2023-02-16T05:24:25;96903.66;;;-2.02;100.00
11676;BME280;5894;42.768;23.404;2023-02-16T05:26:52;96904.75;;;-1.90;100.00
11676;BME280;5894;42.768;23.404;2023-02-16T05:29:20;96979.72;;;-1.90;100.00
11676;BME280;5894;42.768;23.404;2023-02-16T05:31:47;96925.44;;;-1.90;100.00
11676;BME280;5894;42.768;23.404;2023-02-16T05:34:14;96921.81;;;-1.95;100.00
11676;BME280;5894;42.768;23.404;2023-02-16T05:36:41;96929.34;;;-2.00;100.00
11676;BME280;5894;42.768;23.404;2023-02-16T05:39:07;96923.38;;;-2.01;100.00
11676;BME280;5894;42.768;23.404;2023-02-16T05:41:34;96822.09;;;-2.45;100.00
11676;BME280;5894;42.768;23.404;2023-02-16T05:44:02;96915.03;;;-1.96;100.00
11676;BME280;5894;42.768;23.404;2023-02-16T05:46:33;96917.88;;;-1.91;100.00
11676;BME280;5894;42.768;23.404;2023-02-16T05:49:01;96926.09;;;-1.81;100.00
11676;BME280;5894;42.768;23.404;2023-02-16T05:51:28;96931.09;;;-1.73;100.00
11676;BME280;5894;42.768;23.404;2023-02-16T05:53:55;96929.50;;;-1.74;100.00
11676;BME280;5894;42.768;23.404;2023-02-16T05:56:23;96907.63;;;-2.06;100.00
11676;BME280;5894;42.768;23.404;2023-02-16T05:58:50;96900.13;;;-1.94;100.00
11676;BME280;5894;42.768;23.404;2023-02-16T06:01:18;96931.41;;;-1.89;100.00
11676;BME280;5894;42.768;23.404;2023-02-16T06:03:47;96932.16;;;-1.95;100.00
11676;BME280;5894;42.768;23.404;2023-02-16T06:06:13;96902.59;;;-2.14;100.00
11676;BME280;5894;42.768;23.404;2023-02-16T06:08:40;96940.88;;;-1.96;100.00
11676;BME280;5894;42.768;23.404;2023-02-16T06:11:07;96929.19;;;-1.92;100.00
11676;BME280;5894;42.768;23.404;2023-02-16T06:13:54;96944.94;;;-1.87;100.00
11676;BME280;5894;42.768;23.404;2023-02-16T06:16:23;96944.38;;;-1.82;100.00
11676;BME280;5894;42.768;23.404;2023-02-16T06:18:52;96954.91;;;-1.84;100.00
11676;BME280;5894;42.768;23.404;2023-02-16T06:21:19;96909.38;;;-2.13;100.00
11676;BME280;5894;42.768;23.404;2023-02-16T06:23:46;96945.13;;;-1.89;100.00
11676;BME280;5894;42.768;23.404;2023-02-16T06:26:13;96955.88;;;-1.85;100.00
11676;BME280;5894;42.768;23.404;2023-02-16T06:28:40;96957.66;;;-1.86;100.00
11676;BME280;5894;42.768;23.404;2023-02-16T06:31:07;96942.44;;;-2.02;100.00
11676;BME280;5894;42.768;23.404;2023-02-16T06:33:34;96885.19;;;-2.27;100.00
11676;BME280;5894;42.768;23.404;2023-02-16T06:36:03;96853.53;;;-2.35;100.00
11676;BME280;5894;42.768;23.404;2023-02-16T06:38:30;96911.72;;;-1.90;100.00
11676;BME280;5894;42.768;23.404;2023-02-16T06:40:57;96882.00;;;-2.01;100.00
11676;BME280;5894;42.768;23.404;2023-02-16T06:43:24;96954.28;;;-1.52;100.00
11676;BME280;5894;42.768;23.404;2023-02-16T06:45:51;96957.31;;;-1.48;100.00
11676;BME280;5894;42.768;23.404;2023-02-16T06:48:18;96963.31;;;-1.34;100.00
11676;BME280;5894;42.768;23.404;2023-02-16T06:50:45;96967.13;;;-1.30;100.00
11676;BME280;5894;42.768;23.404;2023-02-16T06:53:13;96968.94;;;-1.24;100.00
11676;BME280;5894;42.768;23.404;2023-02-16T06:55:40;96955.13;;;-1.44;100.00
11676;BME280;5894;42.768;23.404;2023-02-16T06:58:07;96957.88;;;-1.53;100.00
11676;BME280;5894;42.768;23.404;2023-02-16T07:00:34;96978.09;;;-1.28;100.00
11676;BME280;5894;42.768;23.404;2023-02-16T07:03:01;96931.53;;;-1.69;100.00
11676;BME280;5894;42.768;23.404;2023-02-16T07:05:27;96974.66;;;-1.42;100.00
11676;BME280;5894;42.768;23.404;2023-02-16T07:07:54;96919.31;;;-1.82;100.00
11676;BME280;5894;42.768;23.404;2023-02-16T07:10:22;96947.72;;;-1.54;100.00
11676;BME280;5894;42.768;23.404;2023-02-16T07:12:49;96950.53;;;-1.49;100.00
11676;BME280;5894;42.768;23.404;2023-02-16T07:15:16;96966.00;;;-1.56;100.00
11676;BME280;5894;42.768;23.404;2023-02-16T07:17:43;96951.16;;;-1.47;100.00
11676;BME280;5894;42.768;23.404;2023-02-16T07:20:11;96948.41;;;-1.39;100.00
11676;BME280;5894;42.768;23.404;2023-02-16T07:22:38;96901.84;;;-1.73;100.00
11676;BME280;5894;42.768;23.404;2023-02-16T07:25:05;96944.56;;;-1.50;100.00
11676;BME280;5894;42.768;23.404;2023-02-16T07:27:34;96801.88;;;-2.35;100.00
11676;BME280;5894;42.768;23.404;2023-02-16T07:30:00;96904.75;;;-1.49;100.00
11676;BME280;5894;42.768;23.404;2023-02-16T07:32:28;96929.56;;;-1.20;100.00
11676;BME280;5894;42.768;23.404;2023-02-16T07:34:56;96884.28;;;-1.43;100.00
11676;BME280;5894;42.768;23.404;2023-02-16T07:37:23;96939.97;;;-0.93;100.00
11676;BME280;5894;42.768;23.404;2023-02-16T07:39:50;96933.28;;;-0.75;100.00
11676;BME280;5894;42.768;23.404;2023-02-16T07:42:17;96938.63;;;-0.83;100.00
11676;BME280;5894;42.768;23.404;2023-02-16T07:44:47;96945.03;;;-0.72;100.00
11676;BME280;5894;42.768;23.404;2023-02-16T07:47:14;96944.44;;;-0.67;100.00
11676;BME280;5894;42.768;23.404;2023-02-16T07:49:41;96932.06;;;-0.72;100.00
11676;BME280;5894;42.768;23.404;2023-02-16T07:52:07;96937.88;;;-0.57;100.00
11676;BME280;5894;42.768;23.404;2023-02-16T07:54:34;96894.22;;;-0.73;100.00
11676;BME280;5894;42.768;23.404;2023-02-16T07:57:01;96928.31;;;-0.56;100.00
11676;BME280;5894;42.768;23.404;2023-02-16T07:59:28;96943.09;;;-0.44;100.00
11676;BME280;5894;42.768;23.404;2023-02-16T08:01:56;96947.69;;;-0.32;100.00
11676;BME280;5894;42.768;23.404;2023-02-16T08:04:23;96931.72;;;-0.49;100.00
11676;BME280;5894;42.768;23.404;2023-02-16T08:06:50;96938.28;;;-0.40;100.00
11676;BME280;5894;42.768;23.404;2023-02-16T08:09:17;96942.31;;;-0.24;100.00
11676;BME280;5894;42.768;23.404;2023-02-16T08:11:44;96942.50;;;-0.06;100.00
11676;BME280;5894;42.768;23.404;2023-02-16T08:14:10;96907.19;;;-0.14;100.00
11676;BME280;5894;42.768;23.404;2023-02-16T08:16:37;96936.50;;;0.07;100.00
11676;BME280;5894;42.768;23.404;2023-02-16T08:19:05;96951.66;;;0.29;100.00
11676;BME280;5894;42.768;23.404;2023-02-16T08:21:34;96936.66;;;0.31;100.00
11676;BME280;5894;42.768;23.404;2023-02-16T08:24:02;96960.19;;;0.50;100.00
11676;BME280;5894;42.768;23.404;2023-02-16T08:26:33;96950.78;;;0.55;100.00
11676;BME280;5894;42.768;23.404;2023-02-16T08:29:02;96943.00;;;0.62;100.00
11676;BME280;5894;42.768;23.404;2023-02-16T08:31:30;96942.13;;;0.74;100.00
11676;BME280;5894;42.768;23.404;2023-02-16T08:34:00;96947.50;;;0.80;100.00
11676;BME280;5894;42.768;23.404;2023-02-16T08:36:31;96946.03;;;0.97;100.00
11676;BME280;5894;42.768;23.404;2023-02-16T08:38:59;96950.41;;;1.03;100.00
11676;BME280;5894;42.768;23.404;2023-02-16T08:41:29;96933.44;;;1.00;100.00
11676;BME280;5894;42.768;23.404;2023-02-16T08:43:56;96933.44;;;1.00;100.00
11676;BME280;5894;42.768;23.404;2023-02-16T08:46:23;96956.72;;;1.20;100.00
11676;BME280;5894;42.768;23.404;2023-02-16T08:48:50;96881.75;;;0.92;100.00
11676;BME280;5894;42.768;23.404;2023-02-16T08:51:18;96933.63;;;1.37;100.00
11676;BME280;5894;42.768;23.404;2023-02-16T08:53:46;96934.22;;;1.39;100.00
11676;BME280;5894;42.768;23.404;2023-02-16T08:56:14;96920.81;;;1.42;100.00
11676;BME280;5894;42.768;23.404;2023-02-16T08:58:41;96906.63;;;1.38;100.00
11676;BME280;5894;42.768;23.404;2023-02-16T09:01:09;96926.47;;;1.64;100.00
11676;BME280;5894;42.768;23.404;2023-02-16T09:03:38;96925.81;;;1.68;100.00
11676;BME280;5894;42.768;23.404;2023-02-16T09:06:08;96922.97;;;1.76;100.00
11676;BME280;5894;42.768;23.404;2023-02-16T09:08:35;96823.41;;;1.20;100.00
11676;BME280;5894;42.768;23.404;2023-02-16T09:11:05;96932.63;;;1.94;100.00
11676;BME280;5894;42.768;23.404;2023-02-16T09:13:32;96920.34;;;2.01;100.00
11676;BME280;5894;42.768;23.404;2023-02-16T09:16:03;96920.78;;;1.98;100.00
11676;BME280;5894;42.768;23.404;2023-02-16T09:18:30;96925.50;;;2.08;100.00
11676;BME280;5894;42.768;23.404;2023-02-16T09:21:02;96922.03;;;2.14;100.00
11676;BME280;5894;42.768;23.404;2023-02-16T09:23:31;96915.16;;;2.19;100.00
11676;BME280;5894;42.768;23.404;2023-02-16T09:26:00;96911.78;;;2.19;100.00
11676;BME280;5894;42.768;23.404;2023-02-16T09:28:28;96899.00;;;2.17;100.00
11676;BME280;5894;42.768;23.404;2023-02-16T09:30:55;96908.41;;;2.37;100.00
11676;BME280;5894;42.768;23.404;2023-02-16T09:33:23;96900.31;;;2.45;100.00
11676;BME280;5894;42.768;23.404;2023-02-16T09:35:50;96896.03;;;2.50;100.00
11676;BME280;5894;42.768;23.404;2023-02-16T09:38:17;96895.19;;;2.56;100.00
11676;BME280;5894;42.768;23.404;2023-02-16T09:40:46;96896.09;;;2.62;100.00
11676;BME280;5894;42.768;23.404;2023-02-16T09:43:20;96868.19;;;2.51;100.00
11676;BME280;5894;42.768;23.404;2023-02-16T09:45:51;96884.72;;;2.75;100.00
11676;BME280;5894;42.768;23.404;2023-02-16T09:48:29;96889.72;;;2.76;100.00
11676;BME280;5894;42.768;23.404;2023-02-16T09:51:00;96883.84;;;2.81;100.00
11676;BME280;5894;42.768;23.404;2023-02-16T09:53:32;96875.38;;;2.85;100.00
11676;BME280;5894;42.768;23.404;2023-02-16T09:56:07;96849.19;;;2.80;100.00
11676;BME280;5894;42.768;23.404;2023-02-16T09:58:43;96875.81;;;3.12;100.00
11676;BME280;5894;42.768;23.404;2023-02-16T10:01:18;96866.44;;;3.23;100.00
11676;BME280;5894;42.768;23.404;2023-02-16T10:03:54;96868.50;;;3.32;100.00
11676;BME280;5894;42.768;23.404;2023-02-16T10:06:30;96870.81;;;3.41;100.00
11676;BME280;5894;42.768;23.404;2023-02-16T10:09:03;96868.31;;;3.46;100.00
11676;BME280;5894;42.768;23.404;2023-02-16T10:11:35;96853.91;;;3.43;100.00
11676;BME280;5894;42.768;23.404;2023-02-16T10:14:10;96857.53;;;3.54;100.00
11676;BME280;5894;42.768;23.404;2023-02-16T10:16:45;96857.69;;;3.59;100.00
11676;BME280;5894;42.768;23.404;2023-02-16T10:19:20;96818.69;;;3.52;100.00
11676;BME280;5894;42.768;23.404;2023-02-16T10:21:54;96847.94;;;3.78;100.00
11676;BME280;5894;42.768;23.404;2023-02-16T10:24:23;96835.34;;;3.86;100.00
11676;BME280;5894;42.768;23.404;2023-02-16T10:26:58;96790.31;;;3.67;100.00
11676;BME280;5894;42.768;23.404;2023-02-16T10:29:27;96834.88;;;4.13;100.00
11676;BME280;5894;42.768;23.404;2023-02-16T10:32:02;96822.72;;;4.18;100.00
11676;BME280;5894;42.768;23.404;2023-02-16T10:34:42;96833.84;;;4.25;100.00
11676;BME280;5894;42.768;23.404;2023-02-16T10:37:18;96814.88;;;4.30;100.00
11676;BME280;5894;42.768;23.404;2023-02-16T10:39:55;96826.63;;;4.56;100.00
11676;BME280;5894;42.768;23.404;2023-02-16T10:42:33;96828.06;;;4.63;100.00
11676;BME280;5894;42.768;23.404;2023-02-16T10:45:15;96822.13;;;4.68;100.00
11676;BME280;5894;42.768;23.404;2023-02-16T10:47:46;96816.00;;;4.74;100.00
11676;BME280;5894;42.768;23.404;2023-02-16T10:50:21;96800.53;;;4.72;100.00
11676;BME280;5894;42.768;23.404;2023-02-16T10:52:49;96818.19;;;4.94;100.00
11676;BME280;5894;42.768;23.404;2023-02-16T10:55:17;96756.13;;;4.72;100.00
11676;BME280;5894;42.768;23.404;2023-02-16T10:57:50;96805.78;;;5.18;100.00
11676;BME280;5894;42.768;23.404;2023-02-16T11:00:23;96800.16;;;5.26;100.00
11676;BME280;5894;42.768;23.404;2023-02-16T11:02:54;96804.28;;;5.38;100.00
11676;BME280;5894;42.768;23.404;2023-02-16T11:05:34;96795.31;;;5.51;100.00
11676;BME280;5894;42.768;23.404;2023-02-16T11:08:03;96792.22;;;5.54;100.00
11676;BME280;5894;42.768;23.404;2023-02-16T11:10:37;96790.06;;;5.68;100.00
11676;BME280;5894;42.768;23.404;2023-02-16T11:13:05;96785.78;;;5.78;100.00
11676;BME280;5894;42.768;23.404;2023-02-16T11:15:33;96761.53;;;5.66;100.00
11676;BME280;5894;42.768;23.404;2023-02-16T11:18:04;96785.84;;;5.83;100.00
11676;BME280;5894;42.768;23.404;2023-02-16T11:20:35;96781.00;;;5.92;100.00
11676;BME280;5894;42.768;23.404;2023-02-16T11:23:22;96774.06;;;6.03;100.00
11676;BME280;5894;42.768;23.404;2023-02-16T11:25:57;96768.44;;;6.11;100.00
11676;BME280;5894;42.768;23.404;2023-02-16T11:28:27;96772.66;;;6.12;100.00
11676;BME280;5894;42.768;23.404;2023-02-16T11:31:00;96762.03;;;6.23;97.67
11676;BME280;5894;42.768;23.404;2023-02-16T11:33:30;96764.53;;;6.35;96.17
11676;BME280;5894;42.768;23.404;2023-02-16T11:35:59;96753.69;;;6.48;93.65
11676;BME280;5894;42.768;23.404;2023-02-16T11:38:31;96754.53;;;6.54;95.79
11676;BME280;5894;42.768;23.404;2023-02-16T11:41:00;96693.44;;;6.26;93.30
11676;BME280;5894;42.768;23.404;2023-02-16T11:43:29;96748.16;;;6.72;91.12
11676;BME280;5894;42.768;23.404;2023-02-16T11:45:59;96750.31;;;6.80;90.80
11676;BME280;5894;42.768;23.404;2023-02-16T11:48:29;96737.78;;;6.87;91.54
11676;BME280;5894;42.768;23.404;2023-02-16T11:50:59;96752.09;;;7.01;92.91
11676;BME280;5894;42.768;23.404;2023-02-16T11:53:29;96744.00;;;7.08;91.49
11676;BME280;5894;42.768;23.404;2023-02-16T11:56:12;96734.38;;;7.18;91.21
11676;BME280;5894;42.768;23.404;2023-02-16T11:58:43;96724.13;;;7.12;95.30
11676;BME280;5894;42.768;23.404;2023-02-16T12:01:20;96682.00;;;6.91;90.46
11676;BME280;5894;42.768;23.404;2023-02-16T12:04:05;96727.47;;;7.39;87.98
11676;BME280;5894;42.768;23.404;2023-02-16T12:06:47;96727.06;;;7.57;86.23
11676;BME280;5894;42.768;23.404;2023-02-16T12:09:24;96714.50;;;7.64;85.15
11676;BME280;5894;42.768;23.404;2023-02-16T12:12:19;96714.03;;;7.72;83.95
11676;BME280;5894;42.768;23.404;2023-02-16T12:15:01;96709.66;;;7.88;85.06
11676;BME280;5894;42.768;23.404;2023-02-16T12:17:43;96703.84;;;7.86;81.79
11676;BME280;5894;42.768;23.404;2023-02-16T12:20:32;96691.78;;;7.90;87.85
11676;BME280;5894;42.768;23.404;2023-02-16T12:23:17;96697.31;;;7.94;82.63
11676;BME280;5894;42.768;23.404;2023-02-16T12:25:51;96676.63;;;8.07;86.44
11676;BME280;5894;42.768;23.404;2023-02-16T12:28:24;96674.59;;;8.30;84.24
11676;BME280;5894;42.768;23.404;2023-02-16T12:31:00;96650.44;;;8.33;74.78
11676;BME280;5894;42.768;23.404;2023-02-16T12:33:39;96600.97;;;8.09;72.17
11676;BME280;5894;42.768;23.404;2023-02-16T12:36:22;96679.69;;;8.67;68.07
11676;BME280;5894;42.768;23.404;2023-02-16T12:38:58;96677.06;;;8.77;66.27
11676;BME280;5894;42.768;23.404;2023-02-16T12:41:38;96663.38;;;8.70;64.46
11676;BME280;5894;42.768;23.404;2023-02-16T12:44:12;96671.78;;;8.77;68.82
11676;BME280;5894;42.768;23.404;2023-02-16T12:46:42;96663.38;;;8.80;69.74
11676;BME280;5894;42.768;23.404;2023-02-16T12:49:15;96663.38;;;8.90;64.93
11676;BME280;5894;42.768;23.404;2023-02-16T12:51:48;96656.81;;;9.03;64.50
11676;BME280;5894;42.768;23.404;2023-02-16T12:54:22;96657.59;;;9.08;66.11
11676;BME280;5894;42.768;23.404;2023-02-16T12:56:56;96659.16;;;9.14;62.41
11676;BME280;5894;42.768;23.404;2023-02-16T12:59:31;96649.16;;;9.16;60.90
11676;BME280;5894;42.768;23.404;2023-02-16T13:02:03;96650.47;;;9.29;61.37
11676;BME280;5894;42.768;23.404;2023-02-16T13:04:39;96637.56;;;9.28;64.44
11676;BME280;5894;42.768;23.404;2023-02-16T13:07:13;96651.19;;;9.45;60.14
11676;BME280;5894;42.768;23.404;2023-02-16T13:09:51;96653.84;;;9.45;64.08
11676;BME280;5894;42.768;23.404;2023-02-16T13:12:27;96632.78;;;9.45;61.14
11676;BME280;5894;42.768;23.404;2023-02-16T13:15:00;96633.28;;;9.52;67.82
11676;BME280;5894;42.768;23.404;2023-02-16T13:17:32;96629.84;;;9.62;64.81
11676;BME280;5894;42.768;23.404;2023-02-16T13:20:00;96633.97;;;9.78;61.61
11676;BME280;5894;42.768;23.404;2023-02-16T13:22:42;96625.78;;;9.89;66.66
11676;BME280;5894;42.768;23.404;2023-02-16T13:25:44;96622.78;;;10.11;67.14